sensor_id;sensor_type;location;lat;lon;timestamp;pressure;altitude;pressure_sealevel;temperature;humidity
51986;BME280;38002;53.296;6.600;2024-02-14T00:04:45;101463.28;;;6.21;100.00
51986;BME280;38002;53.296;6.600;2024-02-14T00:09:46;101455.94;;;6.23;100.00
51986;BME280;38002;53.296;6.600;2024-02-14T00:14:46;101452.13;;;6.26;100.00
51986;BME280;38002;53.296;6.600;2024-02-14T00:19:47;101440.38;;;6.27;100.00
51986;BME280;38002;53.296;6.600;2024-02-14T00:24:47;101435.81;;;6.27;100.00
51986;BME280;38002;53.296;6.600;2024-02-14T00:29:48;101406.84;;;6.18;100.00
51986;BME280;38002;53.296;6.600;2024-02-14T00:34:49;101419.16;;;6.33;100.00
51986;BME280;38002;53.296;6.600;2024-02-14T00:39:50;101388.56;;;6.22;100.00
51986;BME280;38002;53.296;6.600;2024-02-14T00:44:51;101404.41;;;6.37;100.00
51986;BME280;38002;53.296;6.600;2024-02-14T00:49:52;101374.81;;;6.25;100.00
51986;BME280;38002;53.296;6.600;2024-02-14T00:54:53;101379.34;;;6.35;100.00
51986;BME280;38002;53.296;6.600;2024-02-14T00:59:56;101362.81;;;6.29;100.00
51986;BME280;38002;53.296;6.600;2024-02-14T01:04:57;101343.41;;;6.24;100.00
51986;BME280;38002;53.296;6.600;2024-02-14T01:09:58;101344.50;;;6.32;100.00
51986;BME280;38002;53.296;6.600;2024-02-14T01:14:58;101348.41;;;6.39;100.00
51986;BME280;38002;53.296;6.600;2024-02-14T01:19:59;101354.31;;;6.45;100.00
51986;BME280;38002;53.296;6.600;2024-02-14T01:25:00;101336.91;;;6.37;100.00
51986;BME280;38002;53.296;6.600;2024-02-14T01:30:00;101335.41;;;6.45;100.00
51986;BME280;38002;53.296;6.600;2024-02-14T01:35:02;101317.84;;;6.39;100.00
51986;BME280;38002;53.296;6.600;2024-02-14T01:40:05;101314.41;;;6.48;100.00
51986;BME280;38002;53.296;6.600;2024-02-14T01:45:07;101297.84;;;6.42;100.00
51986;BME280;38002;53.296;6.600;2024-02-14T01:50:09;101300.53;;;6.53;100.00
51986;BME280;38002;53.296;6.600;2024-02-14T01:55:12;101302.13;;;6.55;100.00
51986;BME280;38002;53.296;6.600;2024-02-14T02:00:13;101291.44;;;6.54;100.00
51986;BME280;38002;53.296;6.600;2024-02-14T02:05:16;101289.22;;;6.59;100.00
51986;BME280;38002;53.296;6.600;2024-02-14T02:10:17;101296.56;;;6.68;100.00
51986;BME280;38002;53.296;6.600;2024-02-14T02:15:17;101285.75;;;6.68;100.00
51986;BME280;38002;53.296;6.600;2024-02-14T02:20:18;101275.66;;;6.70;100.00
51986;BME280;38002;53.296;6.600;2024-02-14T02:25:19;101277.72;;;6.77;100.00
51986;BME280;38002;53.296;6.600;2024-02-14T02:30:26;101271.13;;;6.81;100.00
51986;BME280;38002;53.296;6.600;2024-02-14T02:35:27;101261.88;;;6.84;100.00
51986;BME280;38002;53.296;6.600;2024-02-14T02:40:28;101256.47;;;6.84;100.00
51986;BME280;38002;53.296;6.600;2024-02-14T02:45:28;101239.50;;;6.82;100.00
51986;BME280;38002;53.296;6.600;2024-02-14T02:50:29;101260.56;;;6.99;100.00
51986;BME280;38002;53.296;6.600;2024-02-14T02:55:30;101242.66;;;6.98;100.00
51986;BME280;38002;53.296;6.600;2024-02-14T03:00:33;101243.09;;;7.03;100.00
51986;BME280;38002;53.296;6.600;2024-02-14T03:05:33;101251.56;;;7.10;100.00
51986;BME280;38002;53.296;6.600;2024-02-14T03:10:34;101238.16;;;7.08;100.00
51986;BME280;38002;53.296;6.600;2024-02-14T03:15:34;101237.66;;;7.14;100.00
51986;BME280;38002;53.296;6.600;2024-02-14T03:20:36;101216.94;;;7.04;100.00
51986;BME280;38002;53.296;6.600;2024-02-14T03:25:36;101238.59;;;7.24;100.00
51986;BME280;38002;53.296;6.600;2024-02-14T03:30:37;101225.78;;;7.26;100.00
51986;BME280;38002;53.296;6.600;2024-02-14T03:35:39;101233.50;;;7.31;100.00
51986;BME280;38002;53.296;6.600;2024-02-14T03:40:41;101219.19;;;7.40;100.00
51986;BME280;38002;53.296;6.600;2024-02-14T03:45:42;101222.34;;;7.45;100.00
51986;BME280;38002;53.296;6.600;2024-02-14T03:50:43;101221.09;;;7.49;100.00
51986;BME280;38002;53.296;6.600;2024-02-14T03:55:44;101219.09;;;7.51;100.00
51986;BME280;38002;53.296;6.600;2024-02-14T04:00:44;101214.53;;;7.52;100.00
51986;BME280;38002;53.296;6.600;2024-02-14T04:05:46;101207.16;;;7.54;100.00
51986;BME280;38002;53.296;6.600;2024-02-14T04:10:50;101192.91;;;7.52;100.00
51986;BME280;38002;53.296;6.600;2024-02-14T04:15:51;101235.75;;;7.77;100.00
51986;BME280;38002;53.296;6.600;2024-02-14T04:20:53;101226.94;;;7.75;100.00
51986;BME280;38002;53.296;6.600;2024-02-14T04:25:54;101221.22;;;7.78;100.00
51986;BME280;38002;53.296;6.600;2024-02-14T04:30:55;101241.41;;;7.95;100.00
51986;BME280;38002;53.296;6.600;2024-02-14T04:35:56;101226.28;;;7.92;100.00
51986;BME280;38002;53.296;6.600;2024-02-14T04:40:57;101235.31;;;8.02;100.00
51986;BME280;38002;53.296;6.600;2024-02-14T04:45:58;101231.75;;;8.02;100.00
51986;BME280;38002;53.296;6.600;2024-02-14T04:50:59;101227.91;;;8.04;100.00
51986;BME280;38002;53.296;6.600;2024-02-14T04:56:00;101245.94;;;8.25;100.00
51986;BME280;38002;53.296;6.600;2024-02-14T05:01:00;101228.97;;;8.23;100.00
51986;BME280;38002;53.296;6.600;2024-02-14T05:06:02;101250.16;;;8.38;100.00
51986;BME280;38002;53.296;6.600;2024-02-14T05:11:03;101250.31;;;8.46;100.00
51986;BME280;38002;53.296;6.600;2024-02-14T05:16:04;101256.47;;;8.48;100.00
51986;BME280;38002;53.296;6.600;2024-02-14T05:21:06;101270.44;;;8.53;100.00
51986;BME280;38002;53.296;6.600;2024-02-14T05:26:11;101248.28;;;8.39;100.00
51986;BME280;38002;53.296;6.600;2024-02-14T05:31:11;101260.72;;;8.51;100.00
51986;BME280;38002;53.296;6.600;2024-02-14T05:36:15;101274.59;;;8.57;100.00
51986;BME280;38002;53.296;6.600;2024-02-14T05:41:15;101278.31;;;8.66;100.00
51986;BME280;38002;53.296;6.600;2024-02-14T05:46:18;101281.91;;;8.67;100.00
51986;BME280;38002;53.296;6.600;2024-02-14T05:51:21;101288.03;;;8.69;100.00
51986;BME280;38002;53.296;6.600;2024-02-14T05:56:21;101276.31;;;8.68;100.00
51986;BME280;38002;53.296;6.600;2024-02-14T06:01:21;101305.19;;;8.79;100.00
51986;BME280;38002;53.296;6.600;2024-02-14T06:06:22;101298.88;;;8.78;100.00
51986;BME280;38002;53.296;6.600;2024-02-14T06:11:24;101307.47;;;8.83;100.00
51986;BME280;38002;53.296;6.600;2024-02-14T06:16:25;101314.75;;;8.83;100.00
51986;BME280;38002;53.296;6.600;2024-02-14T06:21:26;101297.47;;;8.74;100.00
51986;BME280;38002;53.296;6.600;2024-02-14T06:42:15;101323.44;;;8.86;100.00
51986;BME280;38002;53.296;6.600;2024-02-14T06:47:25;101327.31;;;8.93;100.00
51986;BME280;38002;53.296;6.600;2024-02-14T06:52:46;101321.47;;;8.88;100.00
51986;BME280;38002;53.296;6.600;2024-02-14T07:03:24;101365.47;;;9.11;100.00
51986;BME280;38002;53.296;6.600;2024-02-14T07:08:30;101349.19;;;9.01;100.00
51986;BME280;38002;53.296;6.600;2024-02-14T07:13:34;101349.19;;;9.01;100.00
51986;BME280;38002;53.296;6.600;2024-02-14T07:18:42;101360.31;;;9.08;100.00
51986;BME280;38002;53.296;6.600;2024-02-14T07:23:47;101352.19;;;9.08;100.00
51986;BME280;38002;53.296;6.600;2024-02-14T08:58:52;101422.66;;;9.67;100.00
51986;BME280;38002;53.296;6.600;2024-02-14T19:21:52;101569.44;;;10.44;100.00
51986;BME280;38002;53.296;6.600;2024-02-14T22:40:19;101621.94;;;10.54;100.00
51986;BME280;38002;53.296;6.600;2024-02-14T23:47:08;101640.81;;;10.36;100.00
51986;BME280;38002;53.296;6.600;2024-02-14T23:52:25;101635.97;;;10.30;100.00
51986;BME280;38002;53.296;6.600;2024-02-14T23:57:32;101650.69;;;10.37;100.00
